KCOSKLIC

Guest
Details From KCOS - Colorado Springs Municipal
To KLIC - LIMON MUNI
Flight Number -
Tags generated
Created
Modified
Stats Distance 56 nm / 104 km
Max Altitude 3,500 ft / 1,067 m
Waypoints 3
Social Downloads 3
Likes 0
Share

Download

Looking for another format? Having issues loading an existing format? Contact us
Advertisement - Login to hide

Notes

Basic altitude profile: - Ascent Rate: 2500ft/min - Ascent Speed: 250kts - Cruise Altitude: 35000ft - Cruise Speed: 420kts - Descent Rate: 1500ft/min - Descent Speed: 250kts Options: - Use NATs: yes - Use PACOTS: yes - Use low airways: yes - Use high airways: yes

Route

KCOS CONAL KLIC

ID Type Via Altitude (ft/m) Position (lat/lon) Dist (leg/tot) Name
O KCOS APT - 0 / 0 38.80721 / -104.70226 - / 0 nm Colorado Springs Municipal
CONAL FIX - 3,500 / 1,067 39.12259 / -103.96690 39 / 39 nm
O KLIC APT - 0 / 0 39.27479 / -103.66587 16 / 55 nm LIMON MUNI

Altitude Profile

Advertisement - Login to hide

KCOS

Details ICAO KCOS (COS)
Name Colorado Springs Municipal
Region United States
Timezone America/Denver (UTC-6.0)
Stats Elevation 6,200 ft / 1,890 m (AMSL)
Location 38.807200° -104.702000°
Runways 3
Magnetic Variation 7.695° E

METAR

KCOS 220754Z 07007KT 10SM BKN250 10/M03 A2983 RMK AO2 SLP044 T01001028

Decode

TAF

KCOS 220529Z 2206/2306 03008KT P6SM SCT250 FM220800 36009KT P6SM BKN200 FM221900 07010G20KT P6SM SCT100 FM222200 02020G35KT P6SM SCT030 BKN070 FM230200 01012G25KT P6SM SCT015 BKN030

Decode

Departure Runways

ID Width Length Bearing (true/mag) Surface Threshold Overrun Markings Lighting
13 150 ft / 46 m 8,267 ft / 2,520 m 135.20° / 127.51° ASPHALT 0 ft / 0 m 0 ft / 0 m APP EDGE THRESHOLD REIL-OMNI
17L 150 ft / 46 m 13,522 ft / 4,122 m 180.07° / 172.38° CONCRETE 0 ft / 0 m 400 ft / 122 m PREC-APP EDGE THRESHOLD MALSR TDZ
17R 150 ft / 46 m 11,039 ft / 3,365 m 180.06° / 172.36° ASPHALT 0 ft / 0 m 1,001 ft / 305 m PREC-APP EDGE THRESHOLD REIL-OMNI
31 150 ft / 46 m 8,267 ft / 2,520 m 315.21° / 307.52° ASPHALT 358 ft / 109 m 200 ft / 61 m APP EDGE THRESHOLD REIL-OMNI
35L 150 ft / 46 m 11,039 ft / 3,365 m 0.06° / 352.36° ASPHALT 0 ft / 0 m 1,001 ft / 305 m PREC-APP EDGE THRESHOLD MALSR
35R 150 ft / 46 m 13,522 ft / 4,122 m 0.07° / 352.38° CONCRETE 0 ft / 0 m 400 ft / 122 m PREC-APP EDGE THRESHOLD TDZ REIL-OMNI

KLIC

Details ICAO KLIC
Name Limon Municipal
Region United States
Timezone America/Denver (UTC-6.0)
Stats Elevation 5,374 ft / 1,638 m (AMSL)
Location 39.274800° -103.666000°
Runways 1
Magnetic Variation 7.181° E

METAR

KLIC 220755Z AUTO 00000KT 10SM CLR 01/M02 A2977 RMK AO2 SLP038 T00111017

Decode

TAF

Not found

Destination Runways

ID Width Length Bearing (true/mag) Surface Threshold Overrun Markings Lighting
16 59 ft / 18 m 4,706 ft / 1,434 m 169.61° / 162.43° CONCRETE 0 ft / 0 m 0 ft / 0 m VISUAL EDGE THRESHOLD
34 59 ft / 18 m 4,706 ft / 1,434 m 349.62° / 342.44° CONCRETE 0 ft / 0 m 0 ft / 0 m VISUAL EDGE THRESHOLD

Popular Alternatives